Greater Kankakee Airport
KIKK : now visible

Airfield :











YOU CAN JOIN US ON...

 
LOGIN :

Register | Disclaimer

   EN    FR    IT 

 









Legend :    VFR   Marginal VFR   IFR   Intensive IFR   Very Intensive IFR
Visi :
Ceiling :
>= 8 km
>= 3000ft
5 to 8 km
1000 to 3000 ft
1500m to 5 km
500 to 1000 ft
800 to 1500m
200 to 500 ft
< 800m
< 200 ft
Symbols :   Thunderstorms  Fog  Heavy snow  Heavy precipitations  Wind > 20 kt






- Airport Elevation : 630 ft


KIKK - Greater Kankakee

CURRENT METAR :
  • 070155Z AUTO 01004KT 10SM OVC016 05/04 A3004 RMK AO2 LTG DSNT S T00500035

EXPIRED METARs :
  • 070135Z AUTO 05003KT 10SM OVC016 05/04 A3005 RMK AO2 T00520036
  • 070115Z AUTO 01004KT 10SM OVC016 06/04 A3005 RMK AO2 LTG DSNT SE T00550035
  • 070055Z AUTO 36005KT 10SM OVC018 06/03 A3005 RMK AO2 LTG DSNT S T00550031
  • 070035Z AUTO 00000KT 10SM OVC018 06/03 A3004 RMK AO2 T00550028
  • 070015Z AUTO 03004KT 10SM SCT018 OVC033 06/03 A3004 RMK AO2 T00570027
  • 062355Z AUTO 04007KT 10SM SCT018 OVC033 06/03 A3001 RMK AO2 T00580028 10071 20057
  • 062335Z AUTO 03006KT 10SM OVC018 06/03 A3002 RMK AO2 LTG DSNT S T00600027
  • 062315Z AUTO 00000KT 10SM BKN018 OVC028 06/03 A3002 RMK AO2 T00610027

TAF N/A
KZAU FIR / North America



MET'MAP, your aeronautical weather chart ! - Copyright ORBIFLY December 2007 - Disclaimer

ORBIFLY MET'MAP TEAM :

Programming & Development : Alexandra Zaïnal
Original concept : Baudouin d'Aumeries
Technical & hardware support : Manuel Goepfert
Assistance : Marc-Olivier Méhu




SOURCES & CREDITS :

   NOAA       Earth
Advisory